Time;durP1;ratioP1;P1;durP2;ratioP2;P2;SDS_P1;SDS_P2;PMS_P1;PMS_P2;Temp;Humidity;BMP_temperature;BMP_pressure;BME280_temperature;BME280_humidity;BME280_pressure;Samples;Min_cycle;Max_cycle;Signal;HPM_P1;HPM_P2
2024/01/20 00:02:12;;;;;;;43.13;15.87;;;;;;;-4.87;100.00;101749.16;4971188;28;20479;-67
2024/01/20 00:04:39;;;;;;;10.93;4.50;;;;;;;-4.76;100.00;101756.28;4970984;28;20461;-69
2024/01/20 00:07:06;;;;;;;5.83;3.40;;;;;;;-4.67;100.00;101752.00;4968829;28;20470;-68
2024/01/20 00:09:33;;;;;;;38.43;15.97;;;;;;;-4.80;100.00;101749.91;4969832;28;20962;-68
2024/01/20 00:12:11;;;;;;;44.80;16.60;;;;;;;-4.74;100.00;101758.25;4962575;28;20500;-67
2024/01/20 00:14:38;;;;;;;37.00;15.77;;;;;;;-4.82;100.00;101747.91;4969299;28;20564;-68
2024/01/20 00:17:04;;;;;;;13.17;4.47;;;;;;;-4.72;100.00;101754.91;4970730;28;20455;-67
2024/01/20 00:19:45;;;;;;;11.50;3.87;;;;;;;-4.80;100.00;101755.09;4966875;28;20565;-68
2024/01/20 00:22:14;;;;;;;18.90;4.50;;;;;;;-4.86;100.00;101750.97;4967161;28;20472;-69
2024/01/20 00:24:40;;;;;;;16.63;4.73;;;;;;;-4.92;100.00;101748.72;4971639;28;20461;-68
2024/01/20 00:27:07;;;;;;;9.33;4.37;;;;;;;-4.87;100.00;101744.00;4967681;28;20842;-67
2024/01/20 00:29:33;;;;;;;11.40;4.40;;;;;;;-4.93;100.00;101740.81;4969756;28;20482;-68
2024/01/20 00:32:00;;;;;;;9.00;3.73;;;;;;;-4.98;100.00;101739.47;4961137;28;20489;-69
2024/01/20 00:34:27;;;;;;;6.57;4.90;;;;;;;-4.97;100.00;101744.78;4968409;28;20461;-70
2024/01/20 00:37:00;;;;;;;17.47;4.43;;;;;;;-4.92;100.00;101738.38;4969446;28;20464;-69
2024/01/20 00:39:26;;;;;;;9.73;2.83;;;;;;;-4.85;100.00;101758.88;4967962;28;20456;-68
2024/01/20 00:41:53;;;;;;;15.30;4.90;;;;;;;-4.95;100.00;101751.00;4963484;28;20576;-68
2024/01/20 00:44:19;;;;;;;8.77;4.10;;;;;;;-4.90;100.00;101756.63;4970528;28;20511;-68
2024/01/20 00:46:45;;;;;;;11.97;4.33;;;;;;;-5.00;100.00;101753.91;4961355;28;20460;-70
2024/01/20 00:49:12;;;;;;;8.07;3.30;;;;;;;-4.96;100.00;101751.78;4968341;28;20849;-68
2024/01/20 00:51:38;;;;;;;38.23;13.40;;;;;;;-5.01;100.00;101752.09;4959537;28;20491;-67
2024/01/20 00:54:05;;;;;;;35.90;14.33;;;;;;;-4.99;100.00;101766.97;4968271;28;20518;-66
2024/01/20 00:56:32;;;;;;;36.27;13.27;;;;;;;-4.95;100.00;101770.75;4967684;28;20456;-68
2024/01/20 00:58:58;;;;;;;41.13;13.37;;;;;;;-4.92;100.00;101776.22;4964394;28;20451;-69
2024/01/20 01:01:25;;;;;;;2.97;2.60;;;;;;;-4.92;100.00;101781.38;4966185;28;21068;-68
2024/01/20 01:03:51;;;;;;;6.67;3.50;;;;;;;-4.92;100.00;101773.63;4970227;28;20460;-69
2024/01/20 01:06:17;;;;;;;9.73;3.70;;;;;;;-4.99;100.00;101785.06;4967540;28;20461;-69
2024/01/20 01:08:44;;;;;;;33.93;13.33;;;;;;;-5.02;100.00;101771.84;4969384;28;20465;-67
2024/01/20 01:11:10;;;;;;;35.07;13.83;;;;;;;-5.01;100.00;101775.34;4967203;28;20486;-70
2024/01/20 01:13:39;;;;;;;32.13;13.23;;;;;;;-5.08;100.00;101779.91;4963716;28;20542;-69
2024/01/20 01:16:05;;;;;;;33.80;13.53;;;;;;;-5.16;100.00;101787.69;4966839;28;20917;-70
2024/01/20 01:18:33;;;;;;;7.13;3.87;;;;;;;-5.24;100.00;101788.56;4968656;28;20461;-68
2024/01/20 01:20:59;;;;;;;8.97;5.03;;;;;;;-5.20;100.00;101790.72;4963932;28;20860;-67
2024/01/20 01:23:26;;;;;;;12.33;4.43;;;;;;;-5.15;100.00;101799.84;4968138;28;20464;-68
2024/01/20 01:25:53;;;;;;;9.47;3.30;;;;;;;-5.05;100.00;101800.88;4967975;28;20462;-67
2024/01/20 01:28:20;;;;;;;11.83;4.37;;;;;;;-5.01;100.00;101814.09;4968978;28;20452;-68
2024/01/20 01:30:47;;;;;;;6.83;3.40;;;;;;;-4.96;100.00;101811.19;4963579;28;20485;-68
2024/01/20 01:33:14;;;;;;;36.47;14.53;;;;;;;-4.95;100.00;101810.41;4967822;28;20456;-68
2024/01/20 01:35:40;;;;;;;34.27;14.30;;;;;;;-4.93;100.00;101795.97;4961896;28;20458;-69
2024/01/20 01:38:07;;;;;;;43.70;14.87;;;;;;;-4.92;100.00;101809.81;4967906;28;20463;-69
2024/01/20 01:40:33;;;;;;;34.63;13.47;;;;;;;-4.91;100.00;101802.19;4968983;28;20483;-67
2024/01/20 01:43:00;;;;;;;34.20;13.73;;;;;;;-4.97;100.00;101813.63;4966068;28;20535;-68
2024/01/20 01:45:26;;;;;;;42.73;14.03;;;;;;;-5.10;100.00;101825.34;4967625;28;20457;-68
2024/01/20 01:47:55;;;;;;;14.80;3.67;;;;;;;-5.11;100.00;101825.19;4969587;28;20479;-68
2024/01/20 01:50:21;;;;;;;4.83;2.97;;;;;;;-5.16;100.00;101824.75;4966113;28;20499;-68
2024/01/20 01:52:52;;;;;;;9.13;3.77;;;;;;;-5.12;100.00;101820.78;4963682;28;20550;-69
2024/01/20 01:55:18;;;;;;;5.00;2.27;;;;;;;-5.11;100.00;101820.94;4964228;28;20531;-67
2024/01/20 01:57:46;;;;;;;10.27;3.83;;;;;;;-5.24;100.00;101824.72;4965612;28;20453;-67
2024/01/20 02:00:14;;;;;;;8.43;3.83;;;;;;;-5.16;100.00;101817.00;4965573;28;20465;-67
2024/01/20 02:02:40;;;;;;;34.47;13.07;;;;;;;-5.23;100.00;101818.81;4958886;28;20476;-69
2024/01/20 02:05:08;;;;;;;13.40;3.17;;;;;;;-5.21;100.00;101831.09;4967628;28;20457;-69
2024/01/20 02:07:35;;;;;;;6.60;3.53;;;;;;;-5.15;100.00;101823.06;4968353;28;20462;-69
2024/01/20 02:10:01;;;;;;;11.53;3.40;;;;;;;-5.13;100.00;101826.72;4967900;28;20461;-67
2024/01/20 02:12:29;;;;;;;15.40;5.07;;;;;;;-5.23;100.00;101821.38;4958785;28;21019;-68
2024/01/20 02:14:56;;;;;;;11.63;5.13;;;;;;;-5.28;100.00;101830.34;4968713;28;20498;-67
2024/01/20 02:17:22;;;;;;;10.43;5.17;;;;;;;-5.44;100.00;101821.09;4966535;28;20462;-68
2024/01/20 02:19:49;;;;;;;15.77;4.90;;;;;;;-5.41;100.00;101825.66;4964834;28;20548;-70
2024/01/20 02:22:16;;;;;;;44.03;14.23;;;;;;;-5.65;100.00;101826.69;4960679;28;21010;-68
2024/01/20 02:24:48;;;;;;;43.50;13.53;;;;;;;-5.53;100.00;101830.50;4965708;28;20467;-67
2024/01/20 02:27:16;;;;;;;12.40;5.23;;;;;;;-5.57;100.00;101825.81;4964415;28;21173;-69
2024/01/20 02:29:43;;;;;;;12.20;4.87;;;;;;;-5.62;100.00;101826.06;4962908;28;20461;-69
2024/01/20 02:32:10;;;;;;;30.63;11.07;;;;;;;-5.59;100.00;101836.75;4965959;28;20486;-70
2024/01/20 02:34:39;;;;;;;35.63;12.93;;;;;;;-5.69;100.00;101835.78;4964367;28;20488;-68
2024/01/20 02:37:08;;;;;;;36.17;15.13;;;;;;;-5.74;100.00;101828.34;4968430;28;20453;-68
2024/01/20 02:39:34;;;;;;;36.20;14.87;;;;;;;-5.74;100.00;101834.41;4968151;28;21021;-68
2024/01/20 02:42:01;;;;;;;36.80;14.07;;;;;;;-5.80;100.00;101851.88;4965644;28;20480;-67
2024/01/20 02:44:27;;;;;;;33.47;13.30;;;;;;;-5.84;100.00;101847.16;4967853;28;20488;-68
2024/01/20 02:46:56;;;;;;;40.83;14.27;;;;;;;-5.79;100.00;101840.78;4959692;28;20452;-68
2024/01/20 02:49:22;;;;;;;36.83;13.03;;;;;;;-5.69;100.00;101851.25;4962684;28;20954;-69
2024/01/20 02:51:49;;;;;;;31.67;12.30;;;;;;;-5.62;100.00;101850.22;4963470;28;20520;-68
2024/01/20 02:54:15;;;;;;;35.30;13.07;;;;;;;-5.58;100.00;101854.94;4962459;28;21045;-69
2024/01/20 02:56:41;;;;;;;38.50;13.30;;;;;;;-5.55;100.00;101859.50;4971340;28;20456;-66
2024/01/20 02:59:08;;;;;;;28.07;11.87;;;;;;;-5.54;100.00;101851.91;4964392;28;20467;-67
2024/01/20 03:01:34;;;;;;;34.20;11.97;;;;;;;-5.55;100.00;101852.69;4967238;28;20473;-68
2024/01/20 03:04:01;;;;;;;31.33;13.10;;;;;;;-5.54;100.00;101854.50;4970603;28;20461;-69
2024/01/20 03:06:27;;;;;;;10.13;4.40;;;;;;;-5.55;100.00;101847.50;4972096;28;20468;-67
2024/01/20 03:08:54;;;;;;;6.13;3.20;;;;;;;-5.50;100.00;101856.63;4972708;28;20459;-67
2024/01/20 03:11:21;;;;;;;24.30;7.90;;;;;;;-5.72;100.00;101845.81;4966909;28;20511;-66
2024/01/20 03:13:47;;;;;;;31.67;11.10;;;;;;;-5.68;100.00;101857.34;4968183;28;20461;-66
2024/01/20 03:16:14;;;;;;;28.60;11.00;;;;;;;-5.68;100.00;101868.56;4968886;28;20462;-67
2024/01/20 03:18:40;;;;;;;21.13;8.70;;;;;;;-5.78;100.00;101855.50;4971368;28;20536;-68
2024/01/20 03:21:09;;;;;;;30.23;11.80;;;;;;;-5.83;100.00;101859.28;4969408;28;20498;-67
2024/01/20 03:23:35;;;;;;;30.37;12.53;;;;;;;-5.87;100.00;101866.56;4968531;28;20492;-68
2024/01/20 03:26:07;;;;;;;25.07;9.80;;;;;;;-5.86;100.00;101858.97;4971774;28;20457;-67
2024/01/20 03:28:34;;;;;;;28.97;10.67;;;;;;;-5.86;100.00;101863.22;4966366;28;20469;-69
2024/01/20 03:31:01;;;;;;;31.40;12.33;;;;;;;-5.98;100.00;101862.03;4963074;28;20504;-67
2024/01/20 03:33:27;;;;;;;26.73;10.93;;;;;;;-5.92;100.00;101865.22;4968631;28;20460;-68
2024/01/20 03:35:54;;;;;;;28.63;11.43;;;;;;;-5.87;100.00;101869.16;4968563;28;20544;-67
2024/01/20 03:38:20;;;;;;;28.87;11.13;;;;;;;-5.88;100.00;101863.06;4968706;28;20467;-67
2024/01/20 03:40:46;;;;;;;26.50;10.50;;;;;;;-5.97;100.00;101864.75;4968065;28;20452;-69
2024/01/20 03:43:13;;;;;;;28.87;11.27;;;;;;;-6.05;100.00;101870.78;4971095;28;20989;-67
2024/01/20 03:45:40;;;;;;;39.10;12.33;;;;;;;-6.04;100.00;101868.34;4972361;28;20453;-68
2024/01/20 03:48:07;;;;;;;26.10;10.67;;;;;;;-6.12;100.00;101873.47;4969659;28;20987;-67
2024/01/20 03:50:34;;;;;;;30.67;11.73;;;;;;;-6.07;100.00;101880.03;4966547;28;20459;-66
2024/01/20 03:53:01;;;;;;;34.67;10.97;;;;;;;-6.10;100.00;101871.97;4960967;28;21060;-66
2024/01/20 03:55:27;;;;;;;27.37;11.33;;;;;;;-6.11;100.00;101889.09;4967616;28;20461;-68
2024/01/20 03:57:53;;;;;;;29.10;11.17;;;;;;;-6.08;100.00;101888.50;4969579;28;20508;-68
2024/01/20 04:00:20;;;;;;;25.47;11.10;;;;;;;-6.20;100.00;101880.44;4967005;28;20544;-67
2024/01/20 04:02:47;;;;;;;23.30;10.67;;;;;;;-6.27;100.00;101893.44;4965060;28;20480;-67
2024/01/20 04:05:13;;;;;;;31.63;12.10;;;;;;;-6.17;100.00;101892.72;4967322;28;20457;-66
2024/01/20 04:07:39;;;;;;;26.37;11.40;;;;;;;-6.24;100.00;101898.00;4968898;28;20960;-66
2024/01/20 04:10:06;;;;;;;31.77;11.93;;;;;;;-6.16;100.00;101894.56;4966711;28;20928;-66
2024/01/20 04:12:35;;;;;;;25.67;10.90;;;;;;;-6.20;100.00;101902.72;4959450;28;20575;-66
2024/01/20 04:15:02;;;;;;;24.53;10.13;;;;;;;-6.17;100.00;101897.88;4969038;28;21056;-67
2024/01/20 04:17:28;;;;;;;32.80;11.70;;;;;;;-6.13;100.00;101895.78;4971765;28;20943;-67
2024/01/20 04:19:55;;;;;;;24.97;9.67;;;;;;;-6.09;100.00;101895.34;4970223;28;20437;-68
2024/01/20 04:22:21;;;;;;;33.90;11.83;;;;;;;-6.08;100.00;101898.81;4965424;28;20468;-69
2024/01/20 04:24:48;;;;;;;27.27;10.90;;;;;;;-6.04;100.00;101890.66;4969596;28;20456;-67
2024/01/20 04:27:14;;;;;;;28.30;10.73;;;;;;;-6.12;100.00;101884.72;4969483;28;20463;-67
2024/01/20 04:29:41;;;;;;;6.67;3.17;;;;;;;-6.04;100.00;101890.66;4967406;28;20544;-67
2024/01/20 04:32:08;;;;;;;8.23;2.53;;;;;;;-6.00;100.00;101895.41;4966392;28;20483;-67
2024/01/20 04:34:34;;;;;;;19.83;7.87;;;;;;;-5.97;100.00;101899.94;4964810;28;20480;-67
2024/01/20 04:37:00;;;;;;;32.97;10.87;;;;;;;-6.05;100.00;101900.03;4966792;28;20468;-68
2024/01/20 04:39:27;;;;;;;25.23;10.30;;;;;;;-6.04;100.00;101899.28;4967609;28;20874;-67
2024/01/20 04:41:53;;;;;;;13.13;4.10;;;;;;;-6.03;100.00;101897.63;4967104;28;20480;-68
2024/01/20 04:44:20;;;;;;;6.10;2.87;;;;;;;-5.98;100.00;101905.88;4969920;28;20456;-67
2024/01/20 04:46:46;;;;;;;13.13;4.17;;;;;;;-5.97;100.00;101913.75;4966771;28;20816;-67
2024/01/20 04:49:13;;;;;;;32.80;11.47;;;;;;;-6.06;100.00;101908.53;4967269;28;20456;-68
2024/01/20 04:51:39;;;;;;;32.97;11.70;;;;;;;-5.97;100.00;101910.28;4965670;28;20532;-67
2024/01/20 04:54:06;;;;;;;29.37;12.10;;;;;;;-6.01;100.00;101909.91;4970465;28;20562;-67
2024/01/20 04:56:32;;;;;;;32.90;11.93;;;;;;;-5.96;100.00;101909.50;4963308;28;20536;-68
2024/01/20 04:58:58;;;;;;;36.63;11.80;;;;;;;-6.10;100.00;101915.81;4969228;28;20544;-66
2024/01/20 05:01:25;;;;;;;10.03;3.03;;;;;;;-6.14;100.00;101921.41;4965889;28;20477;-68
2024/01/20 05:03:51;;;;;;;27.17;10.10;;;;;;;-6.23;100.00;101913.63;4969542;28;20869;-67
2024/01/20 05:06:18;;;;;;;24.93;9.97;;;;;;;-6.23;100.00;101923.03;4967174;28;20500;-66
2024/01/20 05:08:44;;;;;;;27.90;10.93;;;;;;;-6.15;100.00;101924.72;4966379;28;20444;-66
2024/01/20 05:11:11;;;;;;;22.77;9.10;;;;;;;-6.11;100.00;101925.19;4966319;28;20511;-69
2024/01/20 05:13:37;;;;;;;31.17;11.83;;;;;;;-6.11;100.00;101932.94;4970108;28;20485;-68
2024/01/20 05:16:04;;;;;;;26.60;9.27;;;;;;;-6.07;100.00;101929.91;4968245;28;20977;-68
2024/01/20 05:18:30;;;;;;;33.17;11.67;;;;;;;-6.16;100.00;101928.06;4970901;28;20437;-68
2024/01/20 05:20:57;;;;;;;31.63;10.83;;;;;;;-6.28;100.00;101927.72;4966316;28;20456;-67
2024/01/20 05:23:23;;;;;;;25.73;9.43;;;;;;;-6.39;100.00;101917.97;4968867;28;20957;-67
2024/01/20 05:25:50;;;;;;;33.13;11.90;;;;;;;-6.25;100.00;101938.34;4967007;28;20941;-67
2024/01/20 05:28:16;;;;;;;31.20;11.27;;;;;;;-6.26;100.00;101944.25;4969722;28;20625;-67
2024/01/20 05:30:43;;;;;;;30.70;11.40;;;;;;;-6.33;100.00;101940.13;4965493;28;21048;-70
2024/01/20 05:33:09;;;;;;;30.07;10.00;;;;;;;-6.38;100.00;101936.16;4969912;28;20555;-68
2024/01/20 05:35:37;;;;;;;31.63;10.43;;;;;;;-6.37;100.00;101947.38;4966644;28;20945;-69
2024/01/20 05:38:04;;;;;;;28.40;10.27;;;;;;;-6.46;100.00;101961.84;4970662;28;20536;-69
2024/01/20 05:40:30;;;;;;;27.13;10.57;;;;;;;-6.51;100.00;101961.34;4970388;28;20453;-68
2024/01/20 05:42:56;;;;;;;25.97;10.30;;;;;;;-6.56;100.00;101962.53;4970132;28;20523;-69
2024/01/20 05:45:23;;;;;;;34.13;11.77;;;;;;;-6.60;100.00;101956.91;4963442;28;20459;-68
2024/01/20 05:47:49;;;;;;;31.97;11.50;;;;;;;-6.52;100.00;101967.25;4970496;28;20515;-68
2024/01/20 05:50:16;;;;;;;27.13;11.00;;;;;;;-6.54;100.00;101967.84;4969291;28;20775;-68
2024/01/20 05:52:42;;;;;;;27.43;10.67;;;;;;;-6.56;100.00;101978.00;4967667;28;20488;-69
2024/01/20 05:55:08;;;;;;;30.33;11.37;;;;;;;-6.55;100.00;101973.75;4963618;28;20797;-68
2024/01/20 05:57:35;;;;;;;27.63;10.60;;;;;;;-6.47;100.00;101971.22;4969947;28;21126;-71
2024/01/20 06:00:03;;;;;;;31.53;10.83;;;;;;;-6.42;100.00;101982.94;4970024;28;20443;-68
2024/01/20 06:02:30;;;;;;;26.90;10.97;;;;;;;-6.42;100.00;101987.19;4969438;28;20468;-68
2024/01/20 06:04:56;;;;;;;24.60;10.13;;;;;;;-6.44;100.00;101993.84;4968732;28;20471;-67
2024/01/20 06:07:23;;;;;;;25.67;10.43;;;;;;;-6.50;100.00;101996.69;4969926;28;20455;-72
2024/01/20 06:09:49;;;;;;;26.00;10.50;;;;;;;-6.48;100.00;101999.41;4969763;28;20787;-69
2024/01/20 06:12:16;;;;;;;27.17;10.03;;;;;;;-6.60;100.00;102001.63;4967551;28;20519;-68
2024/01/20 06:14:43;;;;;;;29.33;10.90;;;;;;;-6.55;100.00;102003.00;4968941;28;20447;-68
2024/01/20 06:17:10;;;;;;;27.80;10.57;;;;;;;-6.60;100.00;102004.19;4967569;28;20459;-68
2024/01/20 06:19:36;;;;;;;27.17;11.00;;;;;;;-6.54;100.00;101997.09;4969779;28;20441;-68
2024/01/20 06:22:03;;;;;;;29.27;10.73;;;;;;;-6.50;100.00;102007.00;4963871;28;20476;-69
2024/01/20 06:24:30;;;;;;;28.37;11.10;;;;;;;-6.45;100.00;102008.38;4969992;28;20445;-68
2024/01/20 06:26:57;;;;;;;26.27;10.13;;;;;;;-6.50;100.00;102019.88;4969689;28;20440;-67
2024/01/20 06:29:23;;;;;;;26.97;10.00;;;;;;;-6.48;100.00;102020.94;4966099;28;21282;-68
2024/01/20 06:31:49;;;;;;;29.90;11.07;;;;;;;-6.40;100.00;102026.94;4968731;28;20923;-68
2024/01/20 06:34:16;;;;;;;24.50;9.10;;;;;;;-6.42;100.00;102019.00;4963854;28;20551;-73
2024/01/20 06:36:42;;;;;;;24.93;10.10;;;;;;;-6.46;100.00;102019.44;4967326;28;20453;-69
2024/01/20 06:39:09;;;;;;;28.97;10.30;;;;;;;-6.46;100.00;102023.69;4969111;28;20449;-72
2024/01/20 06:41:36;;;;;;;29.40;10.27;;;;;;;-6.47;100.00;102038.22;4969117;28;20472;-68
2024/01/20 06:44:03;;;;;;;28.47;10.80;;;;;;;-6.57;100.00;102034.53;4966282;28;20867;-70
2024/01/20 06:46:29;;;;;;;27.50;9.77;;;;;;;-6.59;100.00;102051.47;4969407;28;20447;-70
2024/01/20 06:48:55;;;;;;;26.53;11.03;;;;;;;-6.50;100.00;102052.44;4969395;28;20528;-69
2024/01/20 06:51:25;;;;;;;23.37;10.13;;;;;;;-6.46;100.00;102054.59;4966195;28;20488;-67
2024/01/20 06:53:57;;;;;;;25.63;9.63;;;;;;;-6.61;100.00;102046.16;4969833;28;20524;-69
2024/01/20 06:56:24;;;;;;;26.27;10.53;;;;;;;-6.69;100.00;102049.56;4969344;28;20523;-70
2024/01/20 06:58:53;;;;;;;23.63;9.70;;;;;;;-6.63;100.00;102047.66;4968860;28;20456;-67
2024/01/20 07:01:22;;;;;;;24.10;8.80;;;;;;;-6.60;100.00;102055.72;4966878;28;20481;-69
2024/01/20 07:03:49;;;;;;;25.73;9.30;;;;;;;-6.50;100.00;102060.19;4968835;28;20452;-69
2024/01/20 07:06:16;;;;;;;27.37;11.00;;;;;;;-6.52;100.00;102062.59;4967705;28;20445;-69
2024/01/20 07:08:42;;;;;;;26.33;10.07;;;;;;;-6.56;100.00;102065.59;4969640;28;20536;-67
2024/01/20 07:11:10;;;;;;;20.83;9.40;;;;;;;-6.49;100.00;102054.28;4965935;28;20531;-68
2024/01/20 07:13:37;;;;;;;29.03;11.20;;;;;;;-6.55;100.00;102048.47;4970295;28;20568;-70
2024/01/20 07:16:09;;;;;;;25.20;10.70;;;;;;;-6.45;100.00;102064.16;4968015;28;20544;-70
2024/01/20 07:18:35;;;;;;;28.27;11.00;;;;;;;-6.43;100.00;102071.31;4969102;28;20444;-69
2024/01/20 07:21:02;;;;;;;25.07;9.77;;;;;;;-6.52;100.00;102057.44;4967473;28;20465;-70
2024/01/20 07:23:28;;;;;;;27.53;10.30;;;;;;;-6.45;100.00;102066.75;4965886;28;21112;-70
2024/01/20 07:25:55;;;;;;;31.77;10.47;;;;;;;-6.41;100.00;102066.31;4968844;28;20881;-69
2024/01/20 07:28:22;;;;;;;29.57;11.00;;;;;;;-6.44;100.00;102063.41;4968656;28;20524;-70
2024/01/20 07:30:48;;;;;;;27.27;10.73;;;;;;;-6.40;100.00;102063.94;4963486;28;20463;-69
2024/01/20 07:33:15;;;;;;;25.23;9.47;;;;;;;-6.47;100.00;102078.53;4964287;28;20508;-69
2024/01/20 07:35:41;;;;;;;26.87;9.77;;;;;;;-6.43;100.00;102072.97;4968094;28;20468;-70
2024/01/20 07:38:07;;;;;;;26.10;9.73;;;;;;;-6.38;100.00;102080.47;4969631;28;20547;-69
2024/01/20 07:40:34;;;;;;;28.87;11.43;;;;;;;-6.42;100.00;102088.59;4970062;28;20476;-69
2024/01/20 07:43:00;;;;;;;24.83;10.17;;;;;;;-6.35;100.00;102097.94;4972982;28;20440;-70
2024/01/20 07:45:27;;;;;;;30.50;11.17;;;;;;;-6.45;100.00;102090.84;4969382;28;20492;-68
2024/01/20 07:47:53;;;;;;;30.20;11.37;;;;;;;-6.51;100.00;102095.34;4972567;28;20441;-69
2024/01/20 07:50:21;;;;;;;24.97;9.47;;;;;;;-6.42;100.00;102103.16;4972598;28;20993;-69
2024/01/20 07:52:47;;;;;;;30.00;10.07;;;;;;;-6.32;100.00;102106.00;4972458;28;20686;-68
2024/01/20 07:55:13;;;;;;;25.77;10.33;;;;;;;-6.27;100.00;102102.22;4969453;28;20468;-69
2024/01/20 07:57:40;;;;;;;25.83;9.87;;;;;;;-6.19;100.00;102109.13;4972778;28;20441;-69
2024/01/20 08:00:10;;;;;;;22.13;9.00;;;;;;;-6.27;100.00;102103.91;4966446;28;20545;-68
2024/01/20 08:02:38;;;;;;;25.07;10.37;;;;;;;-6.13;100.00;102121.75;4971462;28;20481;-69
2024/01/20 08:05:05;;;;;;;5.43;2.87;;;;;;;-6.05;100.00;102115.72;4967875;28;20457;-68
2024/01/20 08:07:32;;;;;;;5.87;2.53;;;;;;;-5.95;100.00;102126.31;4971548;28;21078;-68
2024/01/20 08:09:59;;;;;;;12.73;3.80;;;;;;;-6.01;100.00;102123.03;4972548;28;20444;-68
2024/01/20 08:12:25;;;;;;;25.80;10.03;;;;;;;-5.88;100.00;102126.16;4973627;28;20464;-69
2024/01/20 08:14:52;;;;;;;10.33;2.80;;;;;;;-5.83;100.00;102118.91;4970190;28;20535;-71
2024/01/20 08:17:18;;;;;;;15.53;3.57;;;;;;;-5.75;100.00;102121.53;4972506;28;20441;-69
2024/01/20 08:19:49;;;;;;;6.83;3.73;;;;;;;-5.55;100.00;102138.22;4970285;28;20477;-69
2024/01/20 08:22:15;;;;;;;26.90;9.23;;;;;;;-5.44;100.00;102136.00;4972071;28;20551;-67
2024/01/20 08:24:42;;;;;;;3.90;2.17;;;;;;;-5.36;100.00;102136.78;4965406;28;20556;-72
2024/01/20 08:27:09;;;;;;;11.57;2.90;;;;;;;-5.37;100.00;102137.53;4971171;28;20545;-68
2024/01/20 08:29:35;;;;;;;12.57;4.17;;;;;;;-5.37;100.00;102142.72;4967953;28;20545;-69
2024/01/20 08:32:02;;;;;;;5.63;3.10;;;;;;;-5.28;100.00;102137.56;4970367;28;20712;-68
2024/01/20 08:34:28;;;;;;;7.10;2.43;;;;;;;-5.29;100.00;102138.34;4971293;28;20481;-70
2024/01/20 08:36:55;;;;;;;10.27;3.57;;;;;;;-5.32;100.00;102141.50;4970923;28;20497;-69
2024/01/20 08:39:21;;;;;;;4.23;2.63;;;;;;;-5.19;100.00;102141.16;4971406;28;20475;-72
2024/01/20 08:41:48;;;;;;;4.80;2.60;;;;;;;-5.21;100.00;102147.78;4971163;28;20871;-69
2024/01/20 08:44:14;;;;;;;4.87;2.70;;;;;;;-5.27;100.00;102139.41;4971555;28;20441;-69
2024/01/20 08:46:40;;;;;;;4.43;2.53;;;;;;;-5.20;100.00;102155.72;4966356;28;20548;-71
2024/01/20 08:49:07;;;;;;;8.17;2.67;;;;;;;-5.08;100.00;102154.41;4964020;28;20967;-69
2024/01/20 08:51:33;;;;;;;7.87;3.27;;;;;;;-5.00;100.00;102152.59;4970448;28;20556;-68
2024/01/20 08:54:00;;;;;;;10.13;3.17;;;;;;;-4.83;100.00;102151.72;4967215;28;20479;-72
2024/01/20 08:56:26;;;;;;;12.17;3.53;;;;;;;-4.93;100.00;102142.13;4967576;28;20444;-69
2024/01/20 08:58:53;;;;;;;5.27;3.30;;;;;;;-4.75;100.00;102145.72;4971155;28;20919;-68
2024/01/20 09:01:19;;;;;;;9.07;3.33;;;;;;;-4.64;100.00;102146.78;4965648;28;20487;-68
2024/01/20 09:03:46;;;;;;;6.57;3.37;;;;;;;-4.47;100.00;102147.72;4970918;28;20447;-67
2024/01/20 09:06:14;;;;;;;25.73;10.73;;;;;;;-4.26;100.00;102151.56;4971643;28;20449;-70
2024/01/20 09:08:41;;;;;;;29.37;11.47;;;;;;;-4.17;100.00;102162.81;4969483;28;20588;-68
2024/01/20 09:11:08;;;;;;;11.07;4.20;;;;;;;-4.17;100.00;102149.91;4970758;28;20571;-69
2024/01/20 09:13:34;;;;;;;8.00;3.23;;;;;;;-4.01;100.00;102143.66;4970260;28;20508;-68
2024/01/20 09:16:01;;;;;;;9.10;2.73;;;;;;;-3.95;100.00;102145.19;4967294;28;20531;-68
2024/01/20 09:18:27;;;;;;;9.20;4.00;;;;;;;-3.85;100.00;102134.06;4969245;28;20433;-72
2024/01/20 09:20:54;;;;;;;10.07;4.20;;;;;;;-3.90;100.00;102138.78;4969396;28;20451;-69
2024/01/20 09:23:20;;;;;;;11.63;3.30;;;;;;;-3.82;100.00;102134.38;4970661;28;20445;-69
2024/01/20 09:25:47;;;;;;;26.17;10.47;;;;;;;-3.72;100.00;102143.94;4964498;28;20543;-71
2024/01/20 09:28:14;;;;;;;15.93;4.53;;;;;;;-3.75;100.00;102141.97;4970701;28;20216;-69
2024/01/20 09:30:40;;;;;;;8.27;4.57;;;;;;;-3.71;100.00;102132.81;4963692;28;20633;-69
2024/01/20 09:33:07;;;;;;;10.33;2.83;;;;;;;-3.87;100.00;102146.84;4968962;28;20624;-69
2024/01/20 09:35:34;;;;;;;10.33;3.90;;;;;;;-3.91;100.00;102149.91;4962998;28;20828;-69
2024/01/20 09:38:00;;;;;;;9.27;3.93;;;;;;;-3.90;100.00;102145.66;4970673;28;20451;-70
2024/01/20 09:40:29;;;;;;;10.63;3.80;;;;;;;-3.96;100.00;102156.31;4954540;28;20453;-70
2024/01/20 09:42:56;;;;;;;10.47;4.60;;;;;;;-3.80;100.00;102156.13;4964907;28;20496;-69
2024/01/20 09:45:22;;;;;;;8.60;3.93;;;;;;;-4.06;100.00;102160.38;4967559;28;20472;-70
2024/01/20 09:47:49;;;;;;;11.73;3.23;;;;;;;-3.81;100.00;102169.84;4969019;28;20444;-70
2024/01/20 09:50:15;;;;;;;4.03;2.63;;;;;;;-3.79;100.00;102168.31;4964226;28;20491;-70
2024/01/20 09:53:00;;;;;;;21.57;9.90;;;;;;;-3.85;100.00;102165.13;4968434;28;20464;-71
2024/01/20 09:55:27;;;;;;;5.83;2.97;;;;;;;-3.66;100.00;102158.38;4969489;28;20456;-69
2024/01/20 09:57:55;;;;;;;9.77;3.60;;;;;;;-3.53;100.00;102164.03;4966433;28;20464;-71
2024/01/20 10:00:23;;;;;;;13.73;4.20;;;;;;;-3.59;100.00;102154.75;4969704;28;20447;-69
2024/01/20 10:02:50;;;;;;;30.63;10.00;;;;;;;-3.74;100.00;102161.91;4961683;28;21035;-72
2024/01/20 10:05:17;;;;;;;9.53;4.13;;;;;;;-3.61;100.00;102169.19;4964067;28;20650;-68
2024/01/20 10:07:43;;;;;;;7.23;2.93;;;;;;;-3.52;100.00;102165.84;4969050;28;20484;-67
2024/01/20 10:10:21;;;;;;;8.80;3.03;;;;;;;-3.31;100.00;102159.25;4969040;28;20528;-69
2024/01/20 10:12:49;;;;;;;11.90;3.07;;;;;;;-3.06;100.00;102162.53;4968445;28;20486;-70
2024/01/20 10:15:28;;;;;;;9.07;4.00;;;;;;;-3.03;100.00;102164.50;4970068;28;20932;-69
2024/01/20 10:18:05;;;;;;;23.43;10.00;;;;;;;-3.11;100.00;102170.63;4966837;28;20561;-69
2024/01/20 10:20:33;;;;;;;9.03;3.83;;;;;;;-3.27;100.00;102157.84;4966751;28;20645;-69
2024/01/20 10:23:02;;;;;;;8.40;3.87;;;;;;;-3.19;100.00;102142.31;4966013;28;20229;-70
2024/01/20 10:25:29;;;;;;;8.30;3.57;;;;;;;-2.96;100.00;102157.44;4969472;28;20476;-71
2024/01/20 10:27:55;;;;;;;6.13;3.53;;;;;;;-2.92;100.00;102166.41;4969091;28;20201;-69
2024/01/20 10:30:23;;;;;;;8.53;3.73;;;;;;;-2.95;100.00;102166.13;4959619;28;20303;-71
2024/01/20 10:32:52;;;;;;;6.93;3.23;;;;;;;-2.83;100.00;102160.41;4968896;28;20233;-71
2024/01/20 10:35:34;;;;;;;10.57;3.97;;;;;;;-2.80;100.00;102159.81;4969496;28;20297;-74
2024/01/20 10:38:02;;;;;;;24.43;10.27;;;;;;;-2.87;100.00;102165.16;4967606;28;20688;-70
2024/01/20 10:40:28;;;;;;;7.90;4.07;;;;;;;-2.83;100.00;102159.50;4969314;28;20445;-70
2024/01/20 10:43:00;;;;;;;26.67;9.57;;;;;;;-2.79;100.00;102160.75;4961862;28;20221;-71
2024/01/20 10:45:32;;;;;;;9.77;3.40;;;;;;;-2.73;100.00;102158.72;4969931;28;20587;-70
2024/01/20 10:48:11;;;;;;;8.83;3.90;;;;;;;-2.58;100.00;102154.97;4967357;28;20210;-69
2024/01/20 10:50:44;;;;;;;5.80;3.40;;;;;;;-2.55;100.00;102152.66;4966802;28;20209;-70
2024/01/20 10:53:11;;;;;;;8.70;4.13;;;;;;;-2.60;100.00;102143.53;4967710;28;20258;-69
2024/01/20 10:55:40;;;;;;;15.43;5.33;;;;;;;-2.36;100.00;102142.34;4969504;28;20205;-70
2024/01/20 10:58:08;;;;;;;11.17;4.60;;;;;;;-2.34;100.00;102145.97;4967050;28;20879;-70
2024/01/20 11:00:36;;;;;;;7.53;4.10;;;;;;;-2.34;100.00;102140.78;4965851;28;20684;-69
2024/01/20 11:03:06;;;;;;;9.77;4.70;;;;;;;-2.25;100.00;102144.22;4969361;28;20205;-69
2024/01/20 11:05:33;;;;;;;22.67;9.57;;;;;;;-2.12;100.00;102154.03;4969533;28;20217;-68
2024/01/20 11:08:07;;;;;;;11.10;4.73;;;;;;;-2.06;100.00;102146.81;4967522;28;20202;-68